sensor_id;sensor_type;location;lat;lon;timestamp;pressure;altitude;pressure_sealevel;temperature;humidity
48792;BME280;34587;48.816;9.420;2024-03-08T00:01:52;98753.44;;;2.18;100.00
48792;BME280;34587;48.816;9.420;2024-03-08T00:04:18;98753.31;;;2.12;100.00
48792;BME280;34587;48.816;9.420;2024-03-08T00:06:43;98751.47;;;2.02;100.00
48792;BME280;34587;48.816;9.420;2024-03-08T00:09:11;98751.47;;;2.02;100.00
48792;BME280;34587;48.816;9.420;2024-03-08T00:11:37;98747.03;;;1.89;100.00
48792;BME280;34587;48.816;9.420;2024-03-08T00:14:02;98745.28;;;1.86;100.00
48792;BME280;34587;48.816;9.420;2024-03-08T00:16:31;98741.09;;;1.93;100.00
48792;BME280;34587;48.816;9.420;2024-03-08T00:18:57;98746.19;;;1.90;100.00
48792;BME280;34587;48.816;9.420;2024-03-08T00:21:22;98744.34;;;1.83;100.00
48792;BME280;34587;48.816;9.420;2024-03-08T00:23:47;98740.94;;;1.80;100.00
48792;BME280;34587;48.816;9.420;2024-03-08T00:26:13;98739.25;;;1.83;100.00
48792;BME280;34587;48.816;9.420;2024-03-08T00:28:38;98737.47;;;1.78;100.00
48792;BME280;34587;48.816;9.420;2024-03-08T00:31:03;98730.56;;;1.71;100.00
48792;BME280;34587;48.816;9.420;2024-03-08T00:33:29;98733.94;;;1.70;100.00
48792;BME280;34587;48.816;9.420;2024-03-08T00:35:54;98730.63;;;1.74;100.00
48792;BME280;34587;48.816;9.420;2024-03-08T00:38:19;98730.72;;;1.80;100.00
48792;BME280;34587;48.816;9.420;2024-03-08T00:40:45;98729.00;;;1.79;100.00
48792;BME280;34587;48.816;9.420;2024-03-08T00:43:10;98722.91;;;1.73;100.00
48792;BME280;34587;48.816;9.420;2024-03-08T00:45:35;98721.19;;;1.70;100.00
48792;BME280;34587;48.816;9.420;2024-03-08T00:48:02;98719.44;;;1.68;100.00
48792;BME280;34587;48.816;9.420;2024-03-08T00:50:28;98720.97;;;1.58;100.00
48792;BME280;34587;48.816;9.420;2024-03-08T00:52:53;98720.16;;;1.61;100.00
48792;BME280;34587;48.816;9.420;2024-03-08T00:55:18;98712.38;;;1.54;100.00
48792;BME280;34587;48.816;9.420;2024-03-08T00:57:43;98712.38;;;1.53;100.00
48792;BME280;34587;48.816;9.420;2024-03-08T05:15:41;98504.53;;;-0.11;100.00
48792;BME280;34587;48.816;9.420;2024-03-08T05:18:07;98497.94;;;-0.03;100.00
48792;BME280;34587;48.816;9.420;2024-03-08T05:20:33;98499.56;;;-0.05;100.00
48792;BME280;34587;48.816;9.420;2024-03-08T05:22:58;98496.22;;;-0.04;100.00
48792;BME280;34587;48.816;9.420;2024-03-08T05:25:25;98502.94;;;-0.06;100.00
48792;BME280;34587;48.816;9.420;2024-03-08T05:27:51;98499.41;;;-0.14;100.00
48792;BME280;34587;48.816;9.420;2024-03-08T05:30:17;98502.91;;;-0.09;100.00
48792;BME280;34587;48.816;9.420;2024-03-08T05:32:42;98487.56;;;-0.12;100.00
48792;BME280;34587;48.816;9.420;2024-03-08T05:35:13;98493.41;;;-0.18;100.00
48792;BME280;34587;48.816;9.420;2024-03-08T05:37:41;98492.03;;;-0.01;100.00
48792;BME280;34587;48.816;9.420;2024-03-08T05:40:07;98496.88;;;-0.14;100.00
48792;BME280;34587;48.816;9.420;2024-03-08T05:42:37;98492.91;;;0.00;100.00
48792;BME280;34587;48.816;9.420;2024-03-08T05:45:06;98485.25;;;0.00;100.00
48792;BME280;34587;48.816;9.420;2024-03-08T05:47:32;98489.44;;;-0.02;100.00
48792;BME280;34587;48.816;9.420;2024-03-08T05:49:58;98484.78;;;0.19;100.00
48792;BME280;34587;48.816;9.420;2024-03-08T05:52:24;98482.28;;;0.22;100.00
48792;BME280;34587;48.816;9.420;2024-03-08T05:54:51;98478.78;;;0.17;100.00
48792;BME280;34587;48.816;9.420;2024-03-08T05:57:16;98481.56;;;0.30;100.00
48792;BME280;34587;48.816;9.420;2024-03-08T05:59:42;98478.22;;;0.34;100.00
48792;BME280;34587;48.816;9.420;2024-03-08T06:02:07;98477.44;;;0.38;100.00
48792;BME280;34587;48.816;9.420;2024-03-08T06:04:32;98481.66;;;0.36;100.00
48792;BME280;34587;48.816;9.420;2024-03-08T06:06:57;98480.31;;;0.56;100.00
48792;BME280;34587;48.816;9.420;2024-03-08T06:09:23;98477.06;;;0.66;100.00
48792;BME280;34587;48.816;9.420;2024-03-08T06:11:49;98477.84;;;0.62;100.00
48792;BME280;34587;48.816;9.420;2024-03-08T06:14:15;98478.91;;;0.75;100.00
48792;BME280;34587;48.816;9.420;2024-03-08T06:16:44;98484.16;;;0.83;100.00
48792;BME280;34587;48.816;9.420;2024-03-08T06:19:09;98473.25;;;0.93;100.00
48792;BME280;34587;48.816;9.420;2024-03-08T06:21:35;98475.28;;;1.15;100.00
48792;BME280;34587;48.816;9.420;2024-03-08T06:24:00;98472.13;;;1.33;100.00
48792;BME280;34587;48.816;9.420;2024-03-08T06:26:25;98470.31;;;1.24;100.00
48792;BME280;34587;48.816;9.420;2024-03-08T06:28:53;98468.13;;;1.52;100.00
48792;BME280;34587;48.816;9.420;2024-03-08T06:31:18;98481.75;;;1.54;100.00
48792;BME280;34587;48.816;9.420;2024-03-08T06:33:45;98480.16;;;1.62;100.00
48792;BME280;34587;48.816;9.420;2024-03-08T06:36:10;98479.56;;;1.82;100.00
48792;BME280;34587;48.816;9.420;2024-03-08T06:38:37;98479.63;;;1.86;100.00
48792;BME280;34587;48.816;9.420;2024-03-08T06:41:07;98482.19;;;1.88;100.00
48792;BME280;34587;48.816;9.420;2024-03-08T06:43:32;98484.03;;;2.02;100.00
48792;BME280;34587;48.816;9.420;2024-03-08T06:45:59;98478.97;;;2.07;100.00
48792;BME280;34587;48.816;9.420;2024-03-08T06:48:24;98483.44;;;2.23;100.00
48792;BME280;34587;48.816;9.420;2024-03-08T06:50:50;98478.31;;;2.23;100.00
48792;BME280;34587;48.816;9.420;2024-03-08T06:53:16;98473.22;;;2.25;100.00
48792;BME280;34587;48.816;9.420;2024-03-08T06:55:44;98481.84;;;2.36;100.00
48792;BME280;34587;48.816;9.420;2024-03-08T06:58:09;98480.28;;;2.47;100.00
48792;BME280;34587;48.816;9.420;2024-03-08T07:00:35;98481.97;;;2.50;100.00
48792;BME280;34587;48.816;9.420;2024-03-08T07:03:01;98477.00;;;2.64;100.00
48792;BME280;34587;48.816;9.420;2024-03-08T07:05:27;98477.00;;;2.64;100.00
48792;BME280;34587;48.816;9.420;2024-03-08T07:07:52;98470.25;;;2.75;100.00
48792;BME280;34587;48.816;9.420;2024-03-08T07:10:20;98469.47;;;2.83;100.00
48792;BME280;34587;48.816;9.420;2024-03-08T07:12:45;98467.81;;;2.86;100.00
48792;BME280;34587;48.816;9.420;2024-03-08T07:15:11;98471.97;;;2.74;100.00
48792;BME280;34587;48.816;9.420;2024-03-08T07:17:39;98459.28;;;2.88;100.00
48792;BME280;34587;48.816;9.420;2024-03-08T07:20:06;98468.59;;;2.80;100.00
48792;BME280;34587;48.816;9.420;2024-03-08T07:22:36;98459.28;;;2.87;100.00
48792;BME280;34587;48.816;9.420;2024-03-08T07:25:02;98452.50;;;2.90;100.00
48792;BME280;34587;48.816;9.420;2024-03-08T07:27:33;98457.59;;;2.95;100.00
48792;BME280;34587;48.816;9.420;2024-03-08T07:29:59;98449.06;;;2.93;100.00
48792;BME280;34587;48.816;9.420;2024-03-08T07:32:25;98442.22;;;2.86;100.00
48792;BME280;34587;48.816;9.420;2024-03-08T07:34:53;98446.53;;;2.94;100.00
48792;BME280;34587;48.816;9.420;2024-03-08T07:37:20;98447.34;;;2.89;100.00
48792;BME280;34587;48.816;9.420;2024-03-08T07:39:46;98454.22;;;2.96;100.00
48792;BME280;34587;48.816;9.420;2024-03-08T07:42:11;98445.75;;;3.06;100.00
48792;BME280;34587;48.816;9.420;2024-03-08T07:44:37;98442.31;;;3.01;100.00
48792;BME280;34587;48.816;9.420;2024-03-08T07:47:03;98450.03;;;3.05;100.00
48792;BME280;34587;48.816;9.420;2024-03-08T07:49:29;98454.22;;;2.99;100.00
48792;BME280;34587;48.816;9.420;2024-03-08T07:51:55;98450.78;;;2.94;100.00
48792;BME280;34587;48.816;9.420;2024-03-08T07:54:20;98443.22;;;3.07;100.00
48792;BME280;34587;48.816;9.420;2024-03-08T07:56:45;98450.03;;;3.07;100.00
48792;BME280;34587;48.816;9.420;2024-03-08T07:59:11;98449.97;;;2.96;100.00
48792;BME280;34587;48.816;9.420;2024-03-08T08:01:37;98442.41;;;3.16;100.00
48792;BME280;34587;48.816;9.420;2024-03-08T08:04:03;98439.78;;;3.07;100.00
48792;BME280;34587;48.816;9.420;2024-03-08T08:06:28;98449.28;;;3.20;100.00
48792;BME280;34587;48.816;9.420;2024-03-08T08:08:57;98448.50;;;3.37;100.00
48792;BME280;34587;48.816;9.420;2024-03-08T08:11:22;98447.66;;;3.34;100.00
48792;BME280;34587;48.816;9.420;2024-03-08T08:13:47;98449.28;;;3.20;100.00
48792;BME280;34587;48.816;9.420;2024-03-08T08:16:13;98445.03;;;3.27;100.00
48792;BME280;34587;48.816;9.420;2024-03-08T08:18:38;98445.06;;;3.33;100.00
48792;BME280;34587;48.816;9.420;2024-03-08T08:21:04;98445.06;;;3.33;100.00
48792;BME280;34587;48.816;9.420;2024-03-08T08:23:32;98434.91;;;3.48;100.00
48792;BME280;34587;48.816;9.420;2024-03-08T08:25:57;98438.38;;;3.67;100.00
48792;BME280;34587;48.816;9.420;2024-03-08T08:28:22;98429.81;;;3.57;100.00
48792;BME280;34587;48.816;9.420;2024-03-08T08:30:48;98433.97;;;3.32;100.00
48792;BME280;34587;48.816;9.420;2024-03-08T08:33:14;98425.44;;;3.33;100.00
48792;BME280;34587;48.816;9.420;2024-03-08T08:35:40;98435.75;;;3.46;100.00
48792;BME280;34587;48.816;9.420;2024-03-08T08:38:05;98426.31;;;3.42;100.00
48792;BME280;34587;48.816;9.420;2024-03-08T08:40:32;98423.84;;;3.60;100.00
48792;BME280;34587;48.816;9.420;2024-03-08T08:42:58;98420.44;;;3.67;100.00
48792;BME280;34587;48.816;9.420;2024-03-08T08:45:23;98411.97;;;3.86;100.00
48792;BME280;34587;48.816;9.420;2024-03-08T08:47:49;98417.06;;;3.71;100.00
48792;BME280;34587;48.816;9.420;2024-03-08T08:50:15;98413.69;;;3.84;100.00
48792;BME280;34587;48.816;9.420;2024-03-08T08:52:41;98417.06;;;3.68;100.00
48792;BME280;34587;48.816;9.420;2024-03-08T08:55:08;98408.53;;;3.81;100.00
48792;BME280;34587;48.816;9.420;2024-03-08T08:57:34;98403.53;;;4.21;100.00
48792;BME280;34587;48.816;9.420;2024-03-08T09:00:00;98398.34;;;4.06;100.00
48792;BME280;34587;48.816;9.420;2024-03-08T09:02:26;98397.50;;;3.99;100.00
48792;BME280;34587;48.816;9.420;2024-03-08T09:04:51;98403.53;;;4.21;100.00
48792;BME280;34587;48.816;9.420;2024-03-08T09:07:17;98416.31;;;4.15;100.00
48792;BME280;34587;48.816;9.420;2024-03-08T09:09:44;98408.63;;;4.12;100.00
48792;BME280;34587;48.816;9.420;2024-03-08T09:12:10;98408.63;;;4.03;100.00
48792;BME280;34587;48.816;9.420;2024-03-08T09:14:41;98400.91;;;4.06;100.00
48792;BME280;34587;48.816;9.420;2024-03-08T09:17:07;98403.50;;;4.24;100.00
48792;BME280;34587;48.816;9.420;2024-03-08T09:19:35;98394.09;;;4.23;100.00
48792;BME280;34587;48.816;9.420;2024-03-08T09:22:02;98396.66;;;4.29;100.00
48792;BME280;34587;48.816;9.420;2024-03-08T09:24:29;98391.53;;;4.23;100.00
48792;BME280;34587;48.816;9.420;2024-03-08T09:26:54;98395.81;;;4.33;100.00
48792;BME280;34587;48.816;9.420;2024-03-08T09:29:20;98394.97;;;4.34;100.00
48792;BME280;34587;48.816;9.420;2024-03-08T09:31:45;98392.41;;;4.42;100.00
48792;BME280;34587;48.816;9.420;2024-03-08T09:34:11;98389.00;;;4.71;100.00
48792;BME280;34587;48.816;9.420;2024-03-08T09:36:36;98391.53;;;4.63;100.00
48792;BME280;34587;48.816;9.420;2024-03-08T09:39:02;98383.00;;;4.58;100.00
48792;BME280;34587;48.816;9.420;2024-03-08T09:41:28;98379.59;;;4.65;100.00
48792;BME280;34587;48.816;9.420;2024-03-08T09:43:55;98383.00;;;4.70;100.00
48792;BME280;34587;48.816;9.420;2024-03-08T09:46:22;98382.97;;;4.95;100.00
48792;BME280;34587;48.816;9.420;2024-03-08T09:48:48;98379.56;;;4.80;100.00
48792;BME280;34587;48.816;9.420;2024-03-08T09:51:13;98381.28;;;4.66;100.00
48792;BME280;34587;48.816;9.420;2024-03-08T09:53:41;98388.13;;;4.58;100.00
48792;BME280;34587;48.816;9.420;2024-03-08T09:56:09;98375.28;;;4.88;100.00
48792;BME280;34587;48.816;9.420;2024-03-08T09:58:34;98373.56;;;4.94;100.00
48792;BME280;34587;48.816;9.420;2024-03-08T10:00:59;98375.22;;;5.05;100.00
48792;BME280;34587;48.816;9.420;2024-03-08T10:03:29;98362.31;;;5.33;100.00
48792;BME280;34587;48.816;9.420;2024-03-08T10:05:58;98360.66;;;5.12;100.00
48792;BME280;34587;48.816;9.420;2024-03-08T10:08:27;98353.78;;;5.20;100.00
48792;BME280;34587;48.816;9.420;2024-03-08T10:10:55;98358.94;;;5.12;100.00
48792;BME280;34587;48.816;9.420;2024-03-08T10:13:20;98347.00;;;5.05;100.00
48792;BME280;34587;48.816;9.420;2024-03-08T10:15:46;98349.50;;;5.25;100.00
48792;BME280;34587;48.816;9.420;2024-03-08T10:18:11;98339.72;;;5.95;100.00
48792;BME280;34587;48.816;9.420;2024-03-08T10:20:36;98344.97;;;5.76;100.00
48792;BME280;34587;48.816;9.420;2024-03-08T10:23:03;98341.63;;;5.60;100.00
48792;BME280;34587;48.816;9.420;2024-03-08T10:25:30;98344.00;;;5.97;100.00
48792;BME280;34587;48.816;9.420;2024-03-08T10:27:56;98341.47;;;5.92;100.00
48792;BME280;34587;48.816;9.420;2024-03-08T10:30:21;98334.72;;;5.70;100.00
48792;BME280;34587;48.816;9.420;2024-03-08T10:32:47;98343.34;;;5.63;100.00
48792;BME280;34587;48.816;9.420;2024-03-08T10:35:13;98337.16;;;5.95;100.00
48792;BME280;34587;48.816;9.420;2024-03-08T10:37:46;98339.72;;;5.95;100.00
48792;BME280;34587;48.816;9.420;2024-03-08T10:40:19;98332.91;;;5.84;100.00
48792;BME280;34587;48.816;9.420;2024-03-08T10:42:58;98322.63;;;6.89;100.00
48792;BME280;34587;48.816;9.420;2024-03-08T10:48:04;98303.56;;;8.78;84.65
48792;BME280;34587;48.816;9.420;2024-03-08T10:50:35;98304.28;;;8.86;83.62
48792;BME280;34587;48.816;9.420;2024-03-08T10:53:01;98292.66;;;9.89;71.50
48792;BME280;34587;48.816;9.420;2024-03-08T10:55:28;98295.09;;;9.16;75.18
48792;BME280;34587;48.816;9.420;2024-03-08T10:57:55;98295.09;;;9.58;75.89
48792;BME280;34587;48.816;9.420;2024-03-08T11:00:20;98296.38;;;9.37;73.09
48792;BME280;34587;48.816;9.420;2024-03-08T11:02:52;98298.03;;;8.99;74.37
48792;BME280;34587;48.816;9.420;2024-03-08T11:05:35;98289.06;;;9.56;71.75
48792;BME280;34587;48.816;9.420;2024-03-08T11:08:05;98282.75;;;11.07;65.48
48792;BME280;34587;48.816;9.420;2024-03-08T11:10:30;98283.22;;;12.60;57.72
48792;BME280;34587;48.816;9.420;2024-03-08T11:12:56;98275.66;;;13.51;50.03
48792;BME280;34587;48.816;9.420;2024-03-08T11:15:21;98272.47;;;14.73;45.77
48792;BME280;34587;48.816;9.420;2024-03-08T11:17:50;98275.44;;;13.79;45.78
48792;BME280;34587;48.816;9.420;2024-03-08T11:20:16;98274.31;;;12.68;52.31
48792;BME280;34587;48.816;9.420;2024-03-08T11:22:48;98272.34;;;12.49;51.53
48792;BME280;34587;48.816;9.420;2024-03-08T11:25:34;98271.31;;;13.03;51.66
48792;BME280;34587;48.816;9.420;2024-03-08T11:28:09;98257.66;;;14.33;45.24
48792;BME280;34587;48.816;9.420;2024-03-08T11:30:35;98267.53;;;12.64;49.52
48792;BME280;34587;48.816;9.420;2024-03-08T11:33:03;98279.16;;;10.48;57.92
48792;BME280;34587;48.816;9.420;2024-03-08T11:35:28;98276.00;;;9.64;67.04
48792;BME280;34587;48.816;9.420;2024-03-08T11:37:54;98262.78;;;8.94;76.79
48792;BME280;34587;48.816;9.420;2024-03-08T11:40:19;98265.22;;;8.58;83.42
48792;BME280;34587;48.816;9.420;2024-03-08T11:42:46;98259.72;;;9.57;75.28
48792;BME280;34587;48.816;9.420;2024-03-08T11:45:17;98252.66;;;10.02;69.64
48792;BME280;34587;48.816;9.420;2024-03-08T11:47:43;98234.06;;;12.28;57.98
48792;BME280;34587;48.816;9.420;2024-03-08T11:50:12;98238.59;;;10.79;63.47
48792;BME280;34587;48.816;9.420;2024-03-08T11:52:37;98228.81;;;13.28;51.31
48792;BME280;34587;48.816;9.420;2024-03-08T11:55:03;98213.69;;;15.98;44.24
48792;BME280;34587;48.816;9.420;2024-03-08T11:57:30;98210.75;;;15.87;42.05
48792;BME280;34587;48.816;9.420;2024-03-08T11:59:57;98214.72;;;15.01;43.54
48792;BME280;34587;48.816;9.420;2024-03-08T12:02:24;98216.63;;;13.52;46.78
48792;BME280;34587;48.816;9.420;2024-03-08T12:04:59;98214.41;;;13.65;46.55
48792;BME280;34587;48.816;9.420;2024-03-08T12:07:26;98217.56;;;12.55;50.67
48792;BME280;34587;48.816;9.420;2024-03-08T12:10:14;98203.59;;;13.06;49.52
48792;BME280;34587;48.816;9.420;2024-03-08T12:12:44;98202.72;;;13.75;45.07
48792;BME280;34587;48.816;9.420;2024-03-08T12:15:09;98185.72;;;14.29;46.26
48792;BME280;34587;48.816;9.420;2024-03-08T12:17:37;98181.03;;;15.15;41.63
48792;BME280;34587;48.816;9.420;2024-03-08T12:20:16;98174.41;;;12.98;47.80
48792;BME280;34587;48.816;9.420;2024-03-08T12:22:43;98176.72;;;12.59;52.68
48792;BME280;34587;48.816;9.420;2024-03-08T12:25:09;98176.63;;;13.54;50.18
48792;BME280;34587;48.816;9.420;2024-03-08T12:27:37;98174.44;;;12.50;50.74
48792;BME280;34587;48.816;9.420;2024-03-08T12:30:51;98187.97;;;10.02;65.35
48792;BME280;34587;48.816;9.420;2024-03-08T12:33:19;98177.56;;;10.38;70.89
48792;BME280;34587;48.816;9.420;2024-03-08T12:35:52;98184.34;;;9.74;72.12
48792;BME280;34587;48.816;9.420;2024-03-08T12:38:23;98181.19;;;9.63;73.91
48792;BME280;34587;48.816;9.420;2024-03-08T12:40:55;98166.75;;;9.88;71.15
48792;BME280;34587;48.816;9.420;2024-03-08T12:43:21;98164.72;;;9.28;75.46
48792;BME280;34587;48.816;9.420;2024-03-08T12:45:47;98157.06;;;9.61;79.49
48792;BME280;34587;48.816;9.420;2024-03-08T12:48:13;98158.00;;;9.21;78.34
48792;BME280;34587;48.816;9.420;2024-03-08T12:50:42;98149.22;;;9.28;79.79
48792;BME280;34587;48.816;9.420;2024-03-08T12:53:13;98142.50;;;9.92;77.01
48792;BME280;34587;48.816;9.420;2024-03-08T12:55:38;98134.22;;;9.78;74.30
48792;BME280;34587;48.816;9.420;2024-03-08T12:58:04;98139.09;;;9.90;75.80
48792;BME280;34587;48.816;9.420;2024-03-08T13:00:32;98125.88;;;9.67;76.09
48792;BME280;34587;48.816;9.420;2024-03-08T13:02:58;98119.88;;;9.99;72.67
48792;BME280;34587;48.816;9.420;2024-03-08T13:05:24;98119.00;;;10.00;71.70
48792;BME280;34587;48.816;9.420;2024-03-08T13:07:49;98103.44;;;10.34;71.60
48792;BME280;34587;48.816;9.420;2024-03-08T13:10:15;98106.66;;;10.42;70.96
48792;BME280;34587;48.816;9.420;2024-03-08T13:12:44;98117.63;;;9.87;71.79
48792;BME280;34587;48.816;9.420;2024-03-08T13:15:10;98106.28;;;9.92;74.62
48792;BME280;34587;48.816;9.420;2024-03-08T13:17:46;98100.78;;;9.70;74.45
48792;BME280;34587;48.816;9.420;2024-03-08T13:20:13;98092.91;;;10.08;73.93
48792;BME280;34587;48.816;9.420;2024-03-08T13:22:45;98095.03;;;9.93;73.30
48792;BME280;34587;48.816;9.420;2024-03-08T13:25:11;98086.97;;;10.04;74.07
48792;BME280;34587;48.816;9.420;2024-03-08T13:27:41;98082.34;;;10.15;73.10
48792;BME280;34587;48.816;9.420;2024-03-08T13:30:11;98083.09;;;10.19;73.29
48792;BME280;34587;48.816;9.420;2024-03-08T13:32:40;98077.00;;;10.21;72.70
48792;BME280;34587;48.816;9.420;2024-03-08T13:35:06;98074.06;;;10.35;72.61
48792;BME280;34587;48.816;9.420;2024-03-08T13:37:38;98068.53;;;10.47;69.75
48792;BME280;34587;48.816;9.420;2024-03-08T13:40:05;98070.91;;;10.24;69.46
48792;BME280;34587;48.816;9.420;2024-03-08T13:42:31;98061.06;;;10.37;68.73
48792;BME280;34587;48.816;9.420;2024-03-08T13:44:56;98048.19;;;10.35;70.04
48792;BME280;34587;48.816;9.420;2024-03-08T13:47:21;98041.38;;;10.31;69.37
48792;BME280;34587;48.816;9.420;2024-03-08T13:49:46;98045.47;;;10.40;71.54
48792;BME280;34587;48.816;9.420;2024-03-08T13:52:12;98040.53;;;10.31;68.82
48792;BME280;34587;48.816;9.420;2024-03-08T13:54:41;98028.78;;;10.48;69.66
48792;BME280;34587;48.816;9.420;2024-03-08T13:57:07;98025.22;;;10.80;69.80
48792;BME280;34587;48.816;9.420;2024-03-08T13:59:35;98020.97;;;10.78;66.71
48792;BME280;34587;48.816;9.420;2024-03-08T14:02:01;98014.97;;;10.49;68.89
48792;BME280;34587;48.816;9.420;2024-03-08T14:04:30;98007.50;;;10.67;71.76
48792;BME280;34587;48.816;9.420;2024-03-08T14:06:55;98008.16;;;10.45;71.91
48792;BME280;34587;48.816;9.420;2024-03-08T14:09:24;98002.31;;;10.67;71.26
48792;BME280;34587;48.816;9.420;2024-03-08T14:11:51;98008.81;;;10.52;70.33
48792;BME280;34587;48.816;9.420;2024-03-08T14:14:19;98001.69;;;10.60;70.59
48792;BME280;34587;48.816;9.420;2024-03-08T14:16:45;97991.88;;;10.96;71.02
48792;BME280;34587;48.816;9.420;2024-03-08T14:19:11;97991.47;;;10.82;69.33
48792;BME280;34587;48.816;9.420;2024-03-08T14:21:36;97990.63;;;10.81;70.68
48792;BME280;34587;48.816;9.420;2024-03-08T14:24:04;97986.69;;;10.98;69.52
48792;BME280;34587;48.816;9.420;2024-03-08T14:26:29;97974.44;;;11.01;69.74
48792;BME280;34587;48.816;9.420;2024-03-08T14:28:55;97969.94;;;11.33;69.39
48792;BME280;34587;48.816;9.420;2024-03-08T14:31:20;97968.56;;;10.96;69.45
48792;BME280;34587;48.816;9.420;2024-03-08T14:33:49;97969.41;;;10.70;68.29
48792;BME280;34587;48.816;9.420;2024-03-08T14:36:15;97970.03;;;10.78;71.79
48792;BME280;34587;48.816;9.420;2024-03-08T14:38:42;97964.56;;;10.86;69.48
48792;BME280;34587;48.816;9.420;2024-03-08T14:41:08;97949.94;;;10.85;69.52
48792;BME280;34587;48.816;9.420;2024-03-08T14:43:33;97958.16;;;10.98;68.88
48792;BME280;34587;48.816;9.420;2024-03-08T14:45:58;97955.31;;;10.79;67.96
48792;BME280;34587;48.816;9.420;2024-03-08T14:48:23;97952.03;;;10.74;68.44
48792;BME280;34587;48.816;9.420;2024-03-08T14:50:49;97945.44;;;10.64;69.51
48792;BME280;34587;48.816;9.420;2024-03-08T14:53:15;97940.25;;;10.90;67.81
48792;BME280;34587;48.816;9.420;2024-03-08T14:55:42;97936.41;;;11.02;68.86
48792;BME280;34587;48.816;9.420;2024-03-08T14:58:07;97947.00;;;10.68;67.60
48792;BME280;34587;48.816;9.420;2024-03-08T15:00:34;97928.56;;;10.78;68.37
48792;BME280;34587;48.816;9.420;2024-03-08T15:02:59;97924.31;;;10.76;67.48
48792;BME280;34587;48.816;9.420;2024-03-08T15:05:27;97930.28;;;10.78;68.14
48792;BME280;34587;48.816;9.420;2024-03-08T15:07:53;97941.38;;;10.83;67.79
48792;BME280;34587;48.816;9.420;2024-03-08T15:10:19;97927.50;;;10.84;68.48
48792;BME280;34587;48.816;9.420;2024-03-08T15:12:48;97916.88;;;10.92;68.54
48792;BME280;34587;48.816;9.420;2024-03-08T15:15:13;97913.94;;;10.76;68.66
48792;BME280;34587;48.816;9.420;2024-03-08T15:17:49;97908.75;;;10.76;69.41
48792;BME280;34587;48.816;9.420;2024-03-08T15:20:16;97898.31;;;10.79;70.69
48792;BME280;34587;48.816;9.420;2024-03-08T15:22:49;97896.19;;;10.90;68.34
48792;BME280;34587;48.816;9.420;2024-03-08T15:25:14;97894.59;;;10.86;67.88
48792;BME280;34587;48.816;9.420;2024-03-08T15:27:46;97886.94;;;10.83;67.20
48792;BME280;34587;48.816;9.420;2024-03-08T15:30:11;97885.28;;;10.80;67.86
48792;BME280;34587;48.816;9.420;2024-03-08T15:32:39;97886.56;;;10.69;67.71
48792;BME280;34587;48.816;9.420;2024-03-08T15:35:06;97883.59;;;10.79;70.57
48792;BME280;34587;48.816;9.420;2024-03-08T15:37:32;97881.91;;;10.78;68.36
48792;BME280;34587;48.816;9.420;2024-03-08T15:39:58;97870.81;;;10.75;68.62
48792;BME280;34587;48.816;9.420;2024-03-08T15:42:24;97878.28;;;10.84;69.20
48792;BME280;34587;48.816;9.420;2024-03-08T15:44:50;97867.53;;;10.70;69.59
48792;BME280;34587;48.816;9.420;2024-03-08T15:47:16;97865.22;;;10.61;70.42
48792;BME280;34587;48.816;9.420;2024-03-08T15:49:41;97862.44;;;10.67;71.52
48792;BME280;34587;48.816;9.420;2024-03-08T15:52:10;97858.75;;;10.74;72.92
48792;BME280;34587;48.816;9.420;2024-03-08T15:54:37;97862.53;;;10.64;72.42
48792;BME280;34587;48.816;9.420;2024-03-08T15:57:03;97861.66;;;10.65;71.21
48792;BME280;34587;48.816;9.420;2024-03-08T15:59:33;97851.38;;;10.62;72.73
48792;BME280;34587;48.816;9.420;2024-03-08T16:02:02;97856.28;;;10.44;70.67
48792;BME280;34587;48.816;9.420;2024-03-08T16:04:29;97843.50;;;10.38;71.90
48792;BME280;34587;48.816;9.420;2024-03-08T16:06:54;97841.91;;;10.34;74.09
48792;BME280;34587;48.816;9.420;2024-03-08T16:09:20;97840.81;;;10.41;74.68
48792;BME280;34587;48.816;9.420;2024-03-08T16:11:45;97839.31;;;10.34;75.71
48792;BME280;34587;48.816;9.420;2024-03-08T16:14:11;97834.34;;;10.28;75.04
48792;BME280;34587;48.816;9.420;2024-03-08T16:16:39;97839.44;;;10.31;74.40
48792;BME280;34587;48.816;9.420;2024-03-08T16:19:04;97837.78;;;10.28;75.39
48792;BME280;34587;48.816;9.420;2024-03-08T16:21:33;97832.84;;;10.19;75.71
48792;BME280;34587;48.816;9.420;2024-03-08T16:23:59;97834.72;;;10.16;77.25
48792;BME280;34587;48.816;9.420;2024-03-08T16:26:25;97832.28;;;10.11;77.82
48792;BME280;34587;48.816;9.420;2024-03-08T16:28:52;97823.13;;;9.99;78.37
48792;BME280;34587;48.816;9.420;2024-03-08T16:31:19;97822.94;;;10.05;75.80
48792;BME280;34587;48.816;9.420;2024-03-08T16:33:44;97823.97;;;10.00;77.04
48792;BME280;34587;48.816;9.420;2024-03-08T16:36:09;97826.69;;;9.95;74.50
48792;BME280;34587;48.816;9.420;2024-03-08T16:38:36;97818.94;;;9.95;74.56
48792;BME280;34587;48.816;9.420;2024-03-08T16:41:03;97828.59;;;9.90;77.59
48792;BME280;34587;48.816;9.420;2024-03-08T16:43:29;97824.84;;;9.72;78.47
48792;BME280;34587;48.816;9.420;2024-03-08T16:45:54;97825.09;;;9.63;77.88
48792;BME280;34587;48.816;9.420;2024-03-08T16:48:21;97822.84;;;9.52;78.21
48792;BME280;34587;48.816;9.420;2024-03-08T16:50:48;97820.41;;;9.46;78.45
48792;BME280;34587;48.816;9.420;2024-03-08T16:53:13;97819.81;;;9.38;79.11
48792;BME280;34587;48.816;9.420;2024-03-08T16:55:40;97811.22;;;9.36;77.58
48792;BME280;34587;48.816;9.420;2024-03-08T16:58:06;97823.50;;;9.28;78.75
48792;BME280;34587;48.816;9.420;2024-03-08T17:00:33;97815.94;;;9.22;78.60
48792;BME280;34587;48.816;9.420;2024-03-08T17:03:00;97818.88;;;9.10;80.17
48792;BME280;34587;48.816;9.420;2024-03-08T17:05:27;97815.72;;;8.98;80.77
48792;BME280;34587;48.816;9.420;2024-03-08T17:08:03;97814.09;;;8.94;80.70
48792;BME280;34587;48.816;9.420;2024-03-08T17:10:33;97807.38;;;8.89;80.30
48792;BME280;34587;48.816;9.420;2024-03-08T17:12:59;97807.50;;;8.84;80.22
48792;BME280;34587;48.816;9.420;2024-03-08T17:15:26;97800.97;;;8.71;82.35
48792;BME280;34587;48.816;9.420;2024-03-08T17:17:56;97804.69;;;8.61;82.36
48792;BME280;34587;48.816;9.420;2024-03-08T17:20:25;97810.00;;;8.55;83.40